MMTC/TRC METAR and TAF weather

Enter ICAO airport designator
Station Type Date Time Source
MMTC METAR 2019/07/17 17:40 UTC NOAA

MMTC 171740Z 07006KT 10SM BKN220 33/13 A3009 RMK SLP063 57010 900 8/002


Station Type Date Time Source
MMTC Decoded METAR 2019/07/17 17:40 UTC NOAA

Torreon, Coah., Mexico (MMTC) 25-32N 103-27W 1150M
Jul 17, 2019 - 01:40 PM EDT / 2019.07.17 1740 UTC
Wind: from the ENE (070 degrees) at 7 MPH (6 KT):0
Visibility: 10 mile(s):0
Sky conditions: mostly cloudy
Temperature: 91 F (33 C)
Dew Point: 55 F (13 C)
Relative Humidity: 29%
Pressure (altimeter): 30.09 in. Hg (1018 hPa)
Pressure tendency: 0.03 inches (1.0 hPa) lower than three hours ago
ob: MMTC 171740Z 07006KT 10SM BKN220 33/13 A3009 RMK SLP063 57010 900 8/002
cycle: 17

Station Type Date Time Source
MMTC TAF 2019/07/17 18:21 UTC NOAA

TAF TAF MMTC 171619Z 1718/1818 05010KT P6SM SCT030 BKN220
BECMG 1720/1721 05015KT SCT030CB BKN220
FM180200 05008KT P6SM SCT090 BKN220
BECMG 1805/1806 00000KT
FM181200 12005KT P6SM BKN220

Example: see airport list